Time;durP1;ratioP1;P1;durP2;ratioP2;P2;SDS_P1;SDS_P2;PMS_P1;PMS_P2;Temp;Humidity;BMP_temperature;BMP_pressure;BME280_temperature;BME280_humidity;BME280_pressure;Samples;Min_cycle;Max_cycle;Signal;HPM_P1;HPM_P2
2022/07/30 00:02:05;;;;;;;9.40;6.45;;;17.20;99.90;;;;;;5071450;28;20041;-60
2022/07/30 00:04:33;;;;;;;9.38;7.00;;;17.20;99.90;;;;;;5071774;28;20048;-60
2022/07/30 00:07:00;;;;;;;12.52;7.18;;;17.20;99.90;;;;;;5071523;28;20045;-64
2022/07/30 00:09:25;;;;;;;8.55;7.25;;;17.20;99.90;;;;;;5071647;28;20084;-60
2022/07/30 00:11:51;;;;;;;9.48;5.85;;;17.20;99.90;;;;;;5071603;28;20091;-60
2022/07/30 00:14:17;;;;;;;11.50;6.70;;;17.20;99.90;;;;;;5087298;28;20041;-60
2022/07/30 00:16:42;;;;;;;15.38;7.35;;;17.20;99.90;;;;;;5071738;28;20048;-60
2022/07/30 00:19:08;;;;;;;10.10;6.82;;;17.10;99.90;;;;;;5071312;28;20137;-61
2022/07/30 00:21:34;;;;;;;9.30;7.05;;;17.10;99.90;;;;;;5071697;28;20057;-60
2022/07/30 00:24:00;;;;;;;10.40;7.28;;;17.10;99.90;;;;;;5071467;28;20414;-64
2022/07/30 00:26:26;;;;;;;12.63;7.80;;;17.10;99.90;;;;;;5071754;28;20098;-59
2022/07/30 00:28:51;;;;;;;12.60;7.68;;;17.10;99.90;;;;;;5071775;28;20509;-60
2022/07/30 00:31:17;;;;;;;9.50;6.95;;;17.00;99.90;;;;;;5071324;28;20561;-60
2022/07/30 00:33:43;;;;;;;10.15;6.65;;;17.00;99.90;;;;;;5053589;28;20048;-60
2022/07/30 00:36:08;;;;;;;10.57;6.93;;;16.90;99.90;;;;;;5071094;28;20051;-60
2022/07/30 00:38:34;;;;;;;9.57;7.28;;;16.90;99.90;;;;;;5070497;28;20090;-59
2022/07/30 00:41:00;;;;;;;14.60;7.82;;;16.90;99.90;;;;;;5071570;28;20486;-59
2022/07/30 00:43:25;;;;;;;12.48;7.75;;;16.90;99.90;;;;;;5072277;28;20041;-60
2022/07/30 00:45:51;;;;;;;9.45;7.40;;;16.90;99.90;;;;;;5074620;28;20059;-61
2022/07/30 00:48:17;;;;;;;10.70;7.40;;;16.80;99.90;;;;;;5073588;28;20147;-60
2022/07/30 00:50:42;;;;;;;10.82;8.10;;;16.80;99.90;;;;;;5074431;28;20041;-61
2022/07/30 00:53:08;;;;;;;14.95;8.50;;;16.70;99.90;;;;;;5075141;28;20068;-60
2022/07/30 00:55:34;;;;;;;11.57;7.90;;;16.70;99.90;;;;;;5074137;28;20486;-61
2022/07/30 00:58:00;;;;;;;13.07;8.13;;;16.70;99.90;;;;;;5075344;28;20059;-61
2022/07/30 01:00:26;;;;;;;11.20;8.15;;;16.70;99.90;;;;;;5075074;28;20051;-61
2022/07/30 01:02:52;;;;;;;10.63;7.80;;;16.70;99.90;;;;;;5074824;28;20129;-61
2022/07/30 01:05:18;;;;;;;12.57;7.93;;;16.70;99.90;;;;;;5073685;28;20045;-64
2022/07/30 01:07:44;;;;;;;12.55;8.52;;;16.70;99.90;;;;;;5073986;28;20051;-61
2022/07/30 01:10:13;;;;;;;11.18;7.93;;;16.70;99.90;;;;;;5074304;28;20056;-61
2022/07/30 01:12:39;;;;;;;14.10;7.97;;;16.60;99.90;;;;;;5073702;28;20506;-60
2022/07/30 01:15:07;;;;;;;10.80;7.38;;;16.60;99.90;;;;;;5074148;28;20048;-61
2022/07/30 01:17:34;;;;;;;10.10;7.95;;;16.60;99.90;;;;;;5074593;28;20478;-60
2022/07/30 01:20:10;;;;;;;10.65;7.45;;;16.60;99.90;;;;;;5074911;28;20040;-61
2022/07/30 01:23:06;;;;;;;11.85;8.23;;;16.60;99.90;;;;;;5074110;28;20059;-61
2022/07/30 01:25:41;;;;;;;9.85;7.97;;;16.60;99.90;;;;;;5069975;28;20052;-61
2022/07/30 01:28:11;;;;;;;12.23;7.65;;;16.60;99.90;;;;;;5074845;28;20517;-61
2022/07/30 01:30:42;;;;;;;9.85;7.57;;;16.60;99.90;;;;;;5074953;28;20080;-61
2022/07/30 01:33:11;;;;;;;9.93;7.07;;;16.50;99.90;;;;;;5074821;28;20045;-61
2022/07/30 01:35:39;;;;;;;11.95;6.95;;;16.50;99.90;;;;;;5074473;28;20118;-61
2022/07/30 01:38:06;;;;;;;13.23;8.43;;;16.50;99.90;;;;;;5073424;28;20064;-60
2022/07/30 01:40:34;;;;;;;13.43;8.43;;;16.50;99.90;;;;;;5056750;28;20124;-61
2022/07/30 01:43:01;;;;;;;12.68;7.75;;;16.50;99.90;;;;;;5074561;28;20109;-59
2022/07/30 01:45:29;;;;;;;11.75;7.10;;;16.50;99.90;;;;;;5074024;28;20438;-59
2022/07/30 01:47:57;;;;;;;10.77;8.05;;;16.40;99.90;;;;;;5089989;28;20044;-59
2022/07/30 01:50:24;;;;;;;13.40;8.32;;;16.40;99.90;;;;;;5074171;28;20075;-61
2022/07/30 01:52:52;;;;;;;11.85;8.13;;;16.40;99.90;;;;;;5074313;28;20157;-60
2022/07/30 01:55:42;;;;;;;11.85;8.70;;;16.40;99.90;;;;;;5072837;28;20052;-59
2022/07/30 01:58:09;;;;;;;13.70;9.80;;;16.40;99.90;;;;;;5073510;28;20498;-60
2022/07/30 02:00:39;;;;;;;11.85;8.65;;;16.40;99.90;;;;;;5073966;28;20301;-59
2022/07/30 02:03:07;;;;;;;12.82;9.60;;;16.40;99.90;;;;;;5073162;28;20139;-60
2022/07/30 02:05:34;;;;;;;14.15;8.88;;;16.40;99.90;;;;;;5072827;28;20044;-60
2022/07/30 02:08:11;;;;;;;12.73;8.30;;;16.40;99.90;;;;;;5072669;28;20041;-59
2022/07/30 02:10:44;;;;;;;11.45;8.25;;;16.40;99.90;;;;;;5073520;28;20128;-60
2022/07/30 02:13:12;;;;;;;10.05;8.07;;;16.30;99.90;;;;;;5073888;28;20048;-61
2022/07/30 02:15:48;;;;;;;11.48;8.40;;;16.30;99.90;;;;;;5073478;28;20131;-60
2022/07/30 02:18:39;;;;;;;12.30;8.93;;;16.30;99.90;;;;;;5073823;28;20040;-60
2022/07/30 02:21:08;;;;;;;10.77;7.97;;;16.30;99.90;;;;;;5072282;28;20413;-60
2022/07/30 02:23:43;;;;;;;9.40;7.70;;;16.20;99.90;;;;;;5055865;28;20063;-63
2022/07/30 02:26:14;;;;;;;11.40;7.88;;;16.30;99.90;;;;;;5072661;28;20135;-60
2022/07/30 02:28:44;;;;;;;14.10;8.63;;;16.20;99.90;;;;;;5072360;28;20074;-60
2022/07/30 02:31:11;;;;;;;16.20;7.97;;;16.20;99.90;;;;;;5072503;28;20044;-60
2022/07/30 02:33:40;;;;;;;10.25;7.57;;;16.10;99.90;;;;;;5073124;28;20041;-60
2022/07/30 02:36:08;;;;;;;10.70;7.93;;;16.10;99.90;;;;;;5072376;28;20389;-60
2022/07/30 02:38:35;;;;;;;9.90;7.47;;;16.10;99.90;;;;;;5073028;28;20083;-60
2022/07/30 02:41:03;;;;;;;9.30;8.10;;;16.10;99.90;;;;;;5072579;28;20136;-61
2022/07/30 02:43:30;;;;;;;13.30;8.25;;;16.10;99.90;;;;;;5073045;28;20083;-60
2022/07/30 02:45:58;;;;;;;9.88;8.15;;;16.10;99.90;;;;;;5072357;28;20056;-59
2022/07/30 02:48:26;;;;;;;10.35;8.20;;;16.10;99.90;;;;;;5072511;28;20577;-60
2022/07/30 02:50:54;;;;;;;11.07;7.68;;;16.10;99.90;;;;;;5073469;28;20052;-60
2022/07/30 02:53:22;;;;;;;9.88;8.15;;;16.00;99.90;;;;;;5072208;28;20052;-60
2022/07/30 02:55:49;;;;;;;11.85;8.20;;;16.00;99.90;;;;;;5073185;28;20052;-61
2022/07/30 02:58:20;;;;;;;13.50;8.90;;;16.00;99.90;;;;;;5073473;28;20053;-62
2022/07/30 03:00:49;;;;;;;10.68;8.30;;;15.90;99.90;;;;;;5072661;28;20040;-60
2022/07/30 03:03:16;;;;;;;10.45;8.63;;;15.90;99.90;;;;;;5055553;28;20094;-61
2022/07/30 03:05:43;;;;;;;12.45;8.95;;;15.90;99.90;;;;;;5071906;28;20055;-60
2022/07/30 03:08:10;;;;;;;11.32;8.73;;;15.90;99.90;;;;;;5073009;28;20180;-60
2022/07/30 03:10:38;;;;;;;13.00;9.25;;;15.90;99.90;;;;;;5071236;28;20061;-60
2022/07/30 03:13:06;;;;;;;11.95;8.77;;;15.90;99.90;;;;;;5071857;28;20057;-60
2022/07/30 03:15:34;;;;;;;9.98;8.23;;;15.90;99.90;;;;;;5071528;28;20128;-63
2022/07/30 03:18:01;;;;;;;10.20;7.82;;;15.90;99.90;;;;;;5072867;28;20393;-59
2022/07/30 03:20:29;;;;;;;12.27;8.07;;;15.90;99.90;;;;;;5072386;28;20508;-63
2022/07/30 03:22:57;;;;;;;13.30;8.52;;;15.80;99.90;;;;;;5072853;28;20137;-60
2022/07/30 03:25:27;;;;;;;13.38;8.98;;;15.80;99.90;;;;;;5072165;28;20490;-60
2022/07/30 03:27:55;;;;;;;13.45;9.60;;;15.80;99.90;;;;;;5072555;28;20040;-60
2022/07/30 03:30:25;;;;;;;12.95;10.27;;;15.80;99.90;;;;;;5072555;28;20394;-60
2022/07/30 03:32:55;;;;;;;13.05;10.00;;;15.70;99.90;;;;;;5070979;28;20413;-60
2022/07/30 03:35:23;;;;;;;13.30;10.20;;;15.80;99.90;;;;;;5071458;28;20442;-61
2022/07/30 03:37:50;;;;;;;12.80;10.38;;;15.80;99.90;;;;;;5071909;28;20040;-61
2022/07/30 03:40:17;;;;;;;12.40;10.80;;;15.70;99.90;;;;;;5072279;28;20051;-59
2022/07/30 03:42:44;;;;;;;14.73;11.35;;;15.70;99.90;;;;;;5071969;28;20051;-60
2022/07/30 03:45:14;;;;;;;13.00;11.13;;;15.70;99.90;;;;;;5072181;28;20051;-59
2022/07/30 03:47:41;;;;;;;14.23;10.75;;;15.70;99.90;;;;;;5071363;28;20048;-59
2022/07/30 03:50:08;;;;;;;14.50;10.60;;;15.60;99.90;;;;;;5071965;28;20120;-60
2022/07/30 03:52:37;;;;;;;11.43;10.23;;;15.60;99.90;;;;;;5071546;28;20105;-60
2022/07/30 03:55:05;;;;;;;16.08;11.55;;;15.60;99.90;;;;;;5072111;28;20056;-60
2022/07/30 03:57:31;;;;;;;14.25;11.10;;;15.60;99.90;;;;;;5071945;28;20056;-64
2022/07/30 03:59:57;;;;;;;13.90;11.20;;;15.60;99.90;;;;;;5070548;28;20562;-60
2022/07/30 04:02:23;;;;;;;15.73;10.90;;;15.60;99.90;;;;;;5071849;28;20049;-60
2022/07/30 04:04:48;;;;;;;12.70;10.20;;;15.60;99.90;;;;;;5070354;28;20051;-60
2022/07/30 04:07:15;;;;;;;11.82;10.55;;;15.60;99.90;;;;;;5070878;28;20055;-60
2022/07/30 04:09:41;;;;;;;15.10;11.40;;;15.60;99.90;;;;;;5053602;28;20055;-60
2022/07/30 04:12:07;;;;;;;13.50;10.68;;;15.60;99.90;;;;;;5072064;28;20053;-60
2022/07/30 04:14:42;;;;;;;14.90;11.25;;;15.60;99.90;;;;;;5070528;28;20048;-65
2022/07/30 04:17:19;;;;;;;16.60;11.23;;;15.60;99.90;;;;;;5071085;28;20189;-59
2022/07/30 04:19:52;;;;;;;15.75;10.80;;;15.60;99.90;;;;;;5070176;28;20045;-60
2022/07/30 04:22:26;;;;;;;19.02;11.18;;;15.60;99.90;;;;;;5071896;28;20059;-60
2022/07/30 04:24:53;;;;;;;15.38;11.60;;;15.70;99.90;;;;;;5070292;28;20059;-60
2022/07/30 04:27:19;;;;;;;14.20;11.90;;;15.70;99.90;;;;;;5071782;28;20119;-60
2022/07/30 04:29:46;;;;;;;16.98;12.48;;;15.70;99.90;;;;;;5071405;28;20512;-60
2022/07/30 04:32:12;;;;;;;13.88;11.18;;;15.70;99.90;;;;;;5071730;28;20052;-59
2022/07/30 04:34:52;;;;;;;19.27;12.40;;;15.80;99.90;;;;;;5071366;28;20044;-63
2022/07/30 04:37:20;;;;;;;16.40;12.05;;;15.80;99.90;;;;;;5070696;28;20040;-60
2022/07/30 04:39:50;;;;;;;16.83;12.00;;;15.80;99.90;;;;;;5071100;28;20055;-59
2022/07/30 04:42:15;;;;;;;14.35;11.93;;;15.80;99.90;;;;;;5071683;28;20045;-60
2022/07/30 04:44:41;;;;;;;13.73;11.40;;;15.90;99.90;;;;;;5069938;28;20509;-60
2022/07/30 04:47:07;;;;;;;13.13;11.43;;;16.00;99.90;;;;;;5071785;28;20098;-62
2022/07/30 04:49:34;;;;;;;14.25;10.70;;;16.10;99.90;;;;;;5053719;28;20032;-61
2022/07/30 04:52:02;;;;;;;14.85;11.00;;;16.30;99.90;;;;;;5069916;28;20048;-61
2022/07/30 04:54:53;;;;;;;12.93;10.43;;;16.80;99.90;;;;;;5070414;28;20057;-61
2022/07/30 04:57:19;;;;;;;13.35;9.43;;;17.40;99.90;;;;;;5069660;28;20135;-61
2022/07/30 04:59:45;;;;;;;12.90;10.00;;;18.00;99.90;;;;;;5069795;28;20052;-61
2022/07/30 05:02:11;;;;;;;15.85;10.05;;;18.60;99.90;;;;;;5070156;28;20501;-60
2022/07/30 05:04:39;;;;;;;11.07;8.32;;;19.10;99.90;;;;;;5053434;28;20052;-60
2022/07/30 05:07:07;;;;;;;12.63;8.38;;;19.60;99.90;;;;;;5071092;28;20055;-60
2022/07/30 05:09:33;;;;;;;10.88;8.35;;;19.90;99.90;;;;;;5071007;28;20054;-60
2022/07/30 05:11:59;;;;;;;10.77;7.80;;;20.30;99.90;;;;;;5069778;28;20052;-60
2022/07/30 05:14:25;;;;;;;10.40;8.60;;;20.70;99.90;;;;;;5070380;28;20041;-61
2022/07/30 05:16:52;;;;;;;13.23;8.27;;;21.00;99.90;;;;;;5069779;28;20136;-61
2022/07/30 05:19:18;;;;;;;10.88;9.00;;;21.40;99.90;;;;;;5071291;28;20044;-60
2022/07/30 05:21:44;;;;;;;12.30;8.85;;;21.70;99.90;;;;;;5070989;28;20144;-65
2022/07/30 05:24:10;;;;;;;12.15;8.77;;;22.00;99.90;;;;;;5069845;28;20087;-61
2022/07/30 05:26:36;;;;;;;11.32;8.35;;;22.40;99.90;;;;;;5071273;28;20091;-61
2022/07/30 05:29:02;;;;;;;13.23;8.30;;;22.70;99.90;;;;;;5054664;28;20137;-61
2022/07/30 05:31:27;;;;;;;10.80;8.13;;;22.90;99.90;;;;;;5073761;28;20102;-60
2022/07/30 05:33:53;;;;;;;12.60;8.18;;;23.10;99.90;;;;;;5074500;28;20048;-61
2022/07/30 05:36:20;;;;;;;14.10;8.20;;;23.20;99.90;;;;;;5074899;28;20044;-61
2022/07/30 05:38:47;;;;;;;10.10;7.80;;;23.60;99.90;;;;;;5074423;28;20044;-65
2022/07/30 05:41:12;;;;;;;17.00;8.65;;;23.80;99.90;;;;;;5073732;28;20059;-61
2022/07/30 05:43:38;;;;;;;10.35;8.10;;;24.10;99.90;;;;;;5074249;28;20045;-61
2022/07/30 05:46:04;;;;;;;11.82;8.35;;;24.50;99.90;;;;;;5073861;28;20052;-61
2022/07/30 05:48:34;;;;;;;15.38;8.50;;;24.90;99.70;;;;;;5074670;28;20033;-61
2022/07/30 05:51:03;;;;;;;13.73;7.97;;;25.20;99.00;;;;;;5072958;28;20125;-61
2022/07/30 05:53:29;;;;;;;10.57;8.18;;;25.60;98.40;;;;;;5074455;28;20055;-60
2022/07/30 05:55:55;;;;;;;12.95;7.85;;;26.00;98.00;;;;;;5073808;28;20127;-60
2022/07/30 05:58:21;;;;;;;11.93;7.80;;;26.40;96.80;;;;;;5074271;28;20055;-62
2022/07/30 06:00:47;;;;;;;15.32;8.13;;;26.80;96.70;;;;;;5073191;28;20486;-66
2022/07/30 06:03:13;;;;;;;9.48;8.15;;;27.10;96.50;;;;;;5056389;28;20080;-60
2022/07/30 06:05:39;;;;;;;11.68;8.20;;;27.20;95.90;;;;;;5074087;28;20041;-62
2022/07/30 06:08:04;;;;;;;10.68;7.82;;;27.30;95.30;;;;;;5073781;28;20037;-62
2022/07/30 06:10:31;;;;;;;11.45;8.23;;;27.50;95.10;;;;;;5072557;28;20052;-62
2022/07/30 06:12:56;;;;;;;11.07;8.10;;;27.60;94.90;;;;;;5073948;28;20051;-61
2022/07/30 06:15:22;;;;;;;12.27;8.30;;;27.80;94.30;;;;;;5073057;28;20045;-61
2022/07/30 06:17:48;;;;;;;11.23;7.47;;;28.10;94.80;;;;;;5072714;28;20093;-61
2022/07/30 06:20:16;;;;;;;9.65;7.07;;;28.30;94.50;;;;;;5073461;28;20037;-63
2022/07/30 06:22:42;;;;;;;9.55;7.32;;;28.60;94.00;;;;;;5074049;28;20186;-61
2022/07/30 06:25:08;;;;;;;9.45;7.05;;;28.90;94.20;;;;;;5073447;28;20076;-60
2022/07/30 06:27:35;;;;;;;10.10;7.07;;;29.00;93.20;;;;;;5072601;28;20036;-61
2022/07/30 06:30:02;;;;;;;10.43;7.22;;;29.10;92.70;;;;;;5073494;28;20124;-61
2022/07/30 06:32:28;;;;;;;12.18;7.45;;;29.10;92.90;;;;;;5073759;28;20394;-61
2022/07/30 06:34:54;;;;;;;8.63;7.25;;;29.20;92.70;;;;;;5072441;28;20049;-64
2022/07/30 06:37:19;;;;;;;12.23;7.22;;;29.20;92.40;;;;;;5073711;28;20094;-61
2022/07/30 06:39:45;;;;;;;8.98;6.63;;;29.50;92.50;;;;;;5073019;28;20470;-61
2022/07/30 06:42:10;;;;;;;12.93;7.20;;;29.50;92.00;;;;;;5071558;28;20505;-61
2022/07/30 06:44:36;;;;;;;9.93;6.53;;;29.40;92.10;;;;;;5073464;28;20125;-62
2022/07/30 06:47:02;;;;;;;8.63;6.70;;;29.20;92.20;;;;;;5071697;28;20125;-61
2022/07/30 06:49:31;;;;;;;8.75;6.45;;;29.20;92.70;;;;;;5072340;28;20075;-62
2022/07/30 06:51:57;;;;;;;23.00;8.52;;;29.20;92.00;;;;;;5073211;28;20459;-68
2022/07/30 06:54:22;;;;;;;11.45;6.20;;;29.00;92.70;;;;;;5073479;28;20131;-61
2022/07/30 06:56:48;;;;;;;12.45;6.50;;;29.20;93.00;;;;;;5072012;28;20048;-61
2022/07/30 06:59:14;;;;;;;9.98;6.88;;;29.50;92.90;;;;;;5072874;28;20131;-61
2022/07/30 07:01:40;;;;;;;9.70;6.13;;;29.90;92.70;;;;;;5073032;28;20494;-63
2022/07/30 07:04:05;;;;;;;11.57;6.35;;;30.40;92.80;;;;;;5072965;28;20044;-59
2022/07/30 07:06:31;;;;;;;10.48;6.00;;;30.40;92.60;;;;;;5071904;28;20385;-59
2022/07/30 07:08:58;;;;;;;11.23;6.03;;;30.40;92.60;;;;;;5071864;28;20041;-60
2022/07/30 07:11:24;;;;;;;9.65;5.55;;;30.40;92.80;;;;;;5072336;28;20053;-61
2022/07/30 07:13:49;;;;;;;11.55;6.00;;;30.90;92.40;;;;;;5071823;28;20068;-60
2022/07/30 07:16:15;;;;;;;8.70;5.65;;;31.10;92.40;;;;;;5071689;28;20052;-60
2022/07/30 07:18:41;;;;;;;10.38;5.47;;;31.30;92.30;;;;;;5072433;28;20044;-60
2022/07/30 07:21:07;;;;;;;10.05;6.30;;;31.70;92.30;;;;;;5072075;28;20040;-60
2022/07/30 07:23:33;;;;;;;9.18;5.30;;;31.60;91.80;;;;;;5071374;28;20122;-61
2022/07/30 07:25:59;;;;;;;9.40;5.43;;;31.30;92.10;;;;;;5054805;28;20098;-62
2022/07/30 07:28:25;;;;;;;15.32;6.05;;;31.60;92.10;;;;;;5071965;28;20100;-60
2022/07/30 07:30:51;;;;;;;9.45;5.32;;;31.90;91.60;;;;;;5072234;28;20505;-61
2022/07/30 07:33:17;;;;;;;7.53;5.13;;;32.30;92.10;;;;;;5070859;28;20040;-62
2022/07/30 07:35:42;;;;;;;12.23;5.65;;;32.50;91.30;;;;;;5072392;28;20389;-61
2022/07/30 07:38:08;;;;;;;8.55;4.78;;;32.40;91.10;;;;;;5087786;28;20048;-61
2022/07/30 07:40:34;;;;;;;11.45;5.43;;;32.20;91.40;;;;;;5072347;28;20041;-61
2022/07/30 07:43:00;;;;;;;9.18;5.03;;;32.10;91.30;;;;;;5072436;28;20132;-61
2022/07/30 07:45:25;;;;;;;7.97;5.18;;;32.10;91.00;;;;;;5054253;28;20051;-61
2022/07/30 07:47:51;;;;;;;10.85;5.03;;;32.60;91.10;;;;;;5072377;28;20048;-60
2022/07/30 07:50:18;;;;;;;9.73;5.57;;;33.20;90.80;;;;;;5072066;28;20080;-61
2022/07/30 07:52:44;;;;;;;8.70;4.75;;;33.60;90.30;;;;;;5071993;28;20054;-61
2022/07/30 07:55:10;;;;;;;7.90;4.35;;;33.70;90.40;;;;;;5070463;28;20127;-60
2022/07/30 07:57:43;;;;;;;9.98;4.90;;;33.90;90.00;;;;;;5071060;28;20048;-61
2022/07/30 08:00:13;;;;;;;8.55;4.70;;;33.90;89.30;;;;;;5071537;28;20482;-62
2022/07/30 08:02:39;;;;;;;8.48;4.53;;;34.10;89.10;;;;;;5071987;28;20052;-60
2022/07/30 08:05:07;;;;;;;7.20;4.28;;;34.50;89.40;;;;;;5072288;28;20101;-61
2022/07/30 08:07:33;;;;;;;8.45;4.85;;;34.50;87.70;;;;;;5072200;28;20041;-60
2022/07/30 08:09:59;;;;;;;11.18;4.50;;;34.40;87.70;;;;;;5087161;28;20056;-60
2022/07/30 08:12:26;;;;;;;6.45;3.95;;;34.40;86.90;;;;;;5070512;28;20050;-61
2022/07/30 08:14:51;;;;;;;9.30;3.72;;;34.40;86.50;;;;;;5071923;28;20063;-62
2022/07/30 08:17:18;;;;;;;11.68;3.67;;;34.60;86.70;;;;;;5071366;28;20044;-63
2022/07/30 08:19:44;;;;;;;8.52;4.30;;;34.30;86.20;;;;;;5071916;28;20047;-60
2022/07/30 08:22:10;;;;;;;7.80;3.80;;;33.70;86.60;;;;;;5071688;28;20044;-63
2022/07/30 08:24:36;;;;;;;8.75;3.75;;;32.50;88.00;;;;;;5071952;28;20037;-60
2022/07/30 08:27:02;;;;;;;6.75;3.63;;;31.70;89.40;;;;;;5070812;28;20052;-60
2022/07/30 08:29:28;;;;;;;9.23;3.85;;;32.10;88.70;;;;;;5071403;28;20078;-60
2022/07/30 08:31:54;;;;;;;8.30;3.80;;;32.20;88.30;;;;;;5070541;28;20086;-61
2022/07/30 08:34:20;;;;;;;7.97;3.58;;;31.60;88.80;;;;;;5071340;28;20089;-60
2022/07/30 08:36:46;;;;;;;8.63;3.60;;;30.80;89.40;;;;;;5071522;28;20435;-60
2022/07/30 08:39:12;;;;;;;6.82;3.30;;;30.10;90.30;;;;;;5070346;28;20044;-63
2022/07/30 08:41:39;;;;;;;7.03;3.25;;;29.70;90.60;;;;;;5071554;28;20051;-60
2022/07/30 08:44:09;;;;;;;8.85;3.30;;;30.10;90.80;;;;;;5071380;28;20525;-60
2022/07/30 08:46:39;;;;;;;6.15;3.17;;;30.80;90.00;;;;;;5071291;28;20051;-60
2022/07/30 08:49:05;;;;;;;4.82;2.92;;;31.30;89.40;;;;;;5071569;28;20056;-60
2022/07/30 08:51:32;;;;;;;6.43;3.13;;;31.50;89.50;;;;;;5069967;28;20048;-60
2022/07/30 08:53:59;;;;;;;7.20;3.42;;;32.10;89.10;;;;;;5071585;28;20071;-62
2022/07/30 08:56:26;;;;;;;6.35;3.22;;;32.00;88.60;;;;;;5070069;28;20186;-59
2022/07/30 08:58:52;;;;;;;6.50;3.33;;;31.30;88.60;;;;;;5071435;28;20049;-61
2022/07/30 09:01:17;;;;;;;7.38;3.22;;;31.10;89.80;;;;;;5071001;28;20051;-61
2022/07/30 09:03:43;;;;;;;5.88;3.00;;;31.50;88.50;;;;;;5071325;28;20044;-60
2022/07/30 09:06:09;;;;;;;6.05;3.10;;;31.70;87.70;;;;;;5075281;28;20171;-61
2022/07/30 09:08:34;;;;;;;7.13;3.60;;;31.80;87.80;;;;;;5075053;28;20040;-61
2022/07/30 09:11:00;;;;;;;7.40;3.30;;;32.00;87.30;;;;;;5073633;28;20067;-61
2022/07/30 09:13:27;;;;;;;6.72;3.03;;;32.30;86.60;;;;;;5074556;28;20087;-61
2022/07/30 09:15:54;;;;;;;6.57;3.00;;;32.20;86.40;;;;;;5075128;28;20127;-60
2022/07/30 09:18:31;;;;;;;6.78;2.90;;;32.40;86.10;;;;;;5074361;28;20044;-61
2022/07/30 09:20:59;;;;;;;9.02;2.92;;;32.80;85.80;;;;;;5075159;28;20562;-61
2022/07/30 09:23:25;;;;;;;8.00;2.78;;;33.10;84.70;;;;;;5074568;28;20055;-61
2022/07/30 09:25:50;;;;;;;8.18;2.60;;;33.40;83.80;;;;;;5074924;28;20405;-60
2022/07/30 09:28:30;;;;;;;5.80;2.47;;;33.70;83.20;;;;;;5073585;28;20040;-60
2022/07/30 09:30:57;;;;;;;9.02;2.70;;;33.80;82.30;;;;;;5074898;28;20040;-60
2022/07/30 09:33:33;;;;;;;6.32;2.80;;;33.90;83.60;;;;;;5074438;28;20105;-60
2022/07/30 09:36:00;;;;;;;6.13;2.50;;;33.70;82.60;;;;;;5073472;28;20048;-60
2022/07/30 09:38:26;;;;;;;6.95;2.35;;;33.30;83.90;;;;;;5074365;28;20049;-60
2022/07/30 09:40:57;;;;;;;5.25;2.30;;;33.40;83.10;;;;;;5074314;28;20052;-61
2022/07/30 09:43:23;;;;;;;6.93;2.50;;;33.10;82.70;;;;;;5074290;28;20120;-65
2022/07/30 09:45:56;;;;;;;8.10;2.50;;;33.20;83.50;;;;;;5073589;28;20052;-62
2022/07/30 09:48:27;;;;;;;5.18;2.22;;;33.40;82.40;;;;;;5074901;28;20056;-67
2022/07/30 09:50:54;;;;;;;5.63;2.20;;;33.70;83.10;;;;;;5074542;28;20449;-60
2022/07/30 09:53:23;;;;;;;8.40;2.65;;;33.90;83.20;;;;;;5074366;28;20044;-61
2022/07/30 09:55:49;;;;;;;6.88;2.55;;;33.40;82.60;;;;;;5074425;28;20037;-60
2022/07/30 09:58:15;;;;;;;6.75;2.20;;;33.10;82.40;;;;;;5074259;28;20055;-61
2022/07/30 10:00:42;;;;;;;6.88;2.70;;;32.70;82.40;;;;;;5074070;28;20040;-60
2022/07/30 10:03:23;;;;;;;4.95;2.28;;;32.50;82.00;;;;;;5074327;28;20044;-59
2022/07/30 10:05:57;;;;;;;5.55;2.35;;;32.20;81.90;;;;;;5074247;28;20044;-61
2022/07/30 10:08:48;;;;;;;8.02;2.53;;;32.00;82.50;;;;;;5073568;28;20063;-61
2022/07/30 10:11:17;;;;;;;7.93;2.75;;;31.80;83.00;;;;;;5068159;28;20063;-60
2022/07/30 10:13:45;;;;;;;6.38;2.70;;;31.50;83.00;;;;;;5073957;28;20056;-61
2022/07/30 10:16:12;;;;;;;7.25;2.60;;;31.20;84.00;;;;;;5072949;28;20132;-60
2022/07/30 10:18:39;;;;;;;5.70;2.72;;;31.10;84.50;;;;;;5072584;28;20056;-60
2022/07/30 10:21:06;;;;;;;9.10;2.80;;;30.80;84.30;;;;;;5073910;28;20052;-60
2022/07/30 10:23:34;;;;;;;8.05;2.95;;;30.70;83.90;;;;;;5073508;28;20088;-60
2022/07/30 10:26:00;;;;;;;5.95;2.38;;;30.40;84.40;;;;;;5072597;28;20126;-61
2022/07/30 10:28:28;;;;;;;6.68;2.30;;;30.30;84.20;;;;;;5073806;28;20051;-60
2022/07/30 10:30:55;;;;;;;10.50;2.90;;;30.30;84.80;;;;;;5073974;28;20052;-59
2022/07/30 10:33:23;;;;;;;7.18;2.50;;;30.10;83.10;;;;;;5072885;28;20504;-60
2022/07/30 10:35:56;;;;;;;8.77;2.50;;;30.10;84.60;;;;;;5073725;28;20497;-59
2022/07/30 10:38:31;;;;;;;5.57;2.75;;;30.10;85.00;;;;;;5073775;28;20135;-60
2022/07/30 10:41:20;;;;;;;6.78;2.80;;;30.20;85.30;;;;;;5072475;28;20047;-62
2022/07/30 10:44:20;;;;;;;8.50;2.45;;;30.20;84.70;;;;;;5072368;28;20375;-62
2022/07/30 10:46:45;;;;;;;5.63;2.45;;;30.20;85.00;;;;;;5073328;28;20045;-60
2022/07/30 10:49:13;;;;;;;5.65;2.63;;;30.30;83.30;;;;;;5073580;28;20040;-60
2022/07/30 10:51:45;;;;;;;4.78;2.30;;;30.30;83.30;;;;;;5073181;28;20059;-61
2022/07/30 10:54:33;;;;;;;6.05;2.58;;;30.20;82.80;;;;;;5073166;28;20056;-61
2022/07/30 10:57:19;;;;;;;4.80;2.33;;;30.00;85.70;;;;;;5072263;28;20050;-60
2022/07/30 10:59:59;;;;;;;6.20;2.55;;;29.60;86.30;;;;;;5073103;28;20141;-60
2022/07/30 11:02:30;;;;;;;5.85;2.65;;;29.50;86.80;;;;;;5072303;28;20398;-61
2022/07/30 11:05:17;;;;;;;5.75;2.40;;;29.60;86.60;;;;;;5073002;28;20137;-61
2022/07/30 11:07:44;;;;;;;7.38;2.70;;;29.30;86.90;;;;;;5072777;28;20044;-61
2022/07/30 11:10:33;;;;;;;6.47;2.28;;;29.20;87.20;;;;;;5073055;28;20097;-61
2022/07/30 11:12:58;;;;;;;7.43;2.53;;;28.90;86.60;;;;;;5072800;28;20052;-61
2022/07/30 11:15:53;;;;;;;6.00;2.67;;;28.80;88.00;;;;;;5072002;28;20048;-61
2022/07/30 11:18:20;;;;;;;6.47;2.50;;;29.00;87.30;;;;;;5071906;28;20056;-61
2022/07/30 11:21:16;;;;;;;6.60;2.47;;;29.00;86.80;;;;;;5071181;28;20102;-60
2022/07/30 11:23:44;;;;;;;9.00;2.70;;;29.20;87.20;;;;;;5067762;28;20056;-62
2022/07/30 11:26:34;;;;;;;6.32;2.90;;;29.00;87.20;;;;;;5054609;28;20136;-60
2022/07/30 11:29:00;;;;;;;4.65;1.88;;;28.90;86.90;;;;;;5068748;28;20050;-60
2022/07/30 11:31:25;;;;;;;5.45;2.35;;;28.90;87.50;;;;;;5068772;28;20128;-61
2022/07/30 11:33:51;;;;;;;5.32;2.25;;;29.00;87.10;;;;;;5071678;28;20091;-60
2022/07/30 11:36:17;;;;;;;8.30;2.78;;;28.90;87.70;;;;;;5072527;28;20040;-61
2022/07/30 11:38:50;;;;;;;7.10;2.20;;;28.90;87.10;;;;;;5070804;28;20045;-61
2022/07/30 11:41:16;;;;;;;3.72;2.03;;;29.00;86.60;;;;;;5072512;28;20068;-61
2022/07/30 11:43:42;;;;;;;5.43;2.40;;;29.10;86.70;;;;;;5070750;28;20048;-61
2022/07/30 11:46:11;;;;;;;4.18;2.10;;;29.20;86.70;;;;;;5072465;28;20109;-60
2022/07/30 11:49:06;;;;;;;7.25;2.30;;;29.30;85.90;;;;;;5071302;28;20044;-60
2022/07/30 11:51:40;;;;;;;6.95;2.25;;;29.40;85.60;;;;;;5072170;28;20045;-61
2022/07/30 11:54:09;;;;;;;5.57;2.55;;;29.50;85.90;;;;;;5054582;28;20048;-62
2022/07/30 11:56:35;;;;;;;5.82;2.20;;;29.60;84.80;;;;;;5071267;28;20049;-59
2022/07/30 11:59:06;;;;;;;7.13;2.10;;;29.50;84.60;;;;;;5053971;28;20104;-60
2022/07/30 12:01:35;;;;;;;5.35;2.30;;;29.50;83.80;;;;;;5070950;28;20056;-60
2022/07/30 12:04:05;;;;;;;7.50;2.38;;;29.40;83.60;;;;;;5070586;28;20100;-60
2022/07/30 12:06:32;;;;;;;6.35;2.38;;;29.20;85.00;;;;;;5071845;28;20053;-61
2022/07/30 12:08:58;;;;;;;6.30;2.20;;;29.10;84.50;;;;;;5070523;28;20355;-60
2022/07/30 12:11:32;;;;;;;6.15;2.17;;;29.00;84.80;;;;;;5071685;28;20078;-60
2022/07/30 12:14:00;;;;;;;5.65;2.30;;;28.80;84.30;;;;;;5070442;28;20470;-61
2022/07/30 12:16:27;;;;;;;6.10;2.58;;;28.70;85.00;;;;;;5070814;28;20398;-61
2022/07/30 12:18:54;;;;;;;8.05;2.40;;;28.60;85.10;;;;;;5071464;28;20040;-61
2022/07/30 12:21:20;;;;;;;8.48;2.53;;;28.70;86.00;;;;;;5070692;28;20185;-62
2022/07/30 12:24:03;;;;;;;7.57;2.40;;;28.60;88.30;;;;;;5051658;28;20131;-64
2022/07/30 12:26:30;;;;;;;5.43;2.08;;;28.70;86.90;;;;;;5069316;28;20052;-61
2022/07/30 12:28:58;;;;;;;5.88;2.42;;;28.90;85.80;;;;;;5071389;28;20126;-61
2022/07/30 12:31:24;;;;;;;3.75;2.17;;;29.00;88.10;;;;;;5071639;28;20048;-60
2022/07/30 12:33:50;;;;;;;5.95;2.15;;;29.00;88.90;;;;;;5071082;28;20494;-61
2022/07/30 12:36:26;;;;;;;6.35;2.10;;;29.10;88.70;;;;;;5070554;28;20051;-61
2022/07/30 12:38:53;;;;;;;7.05;2.38;;;29.10;84.10;;;;;;5070486;28;20044;-62
2022/07/30 12:41:19;;;;;;;5.75;2.20;;;29.00;83.40;;;;;;5070674;28;20053;-61
2022/07/30 12:43:53;;;;;;;7.97;2.42;;;28.90;84.10;;;;;;5071834;28;20044;-61
2022/07/30 12:46:20;;;;;;;6.63;2.40;;;28.80;87.60;;;;;;5071435;28;20059;-61
2022/07/30 12:49:01;;;;;;;8.55;2.47;;;28.50;88.50;;;;;;5071301;28;20477;-60